Time;durP1;ratioP1;P1;durP2;ratioP2;P2;SDS_P1;SDS_P2;PMS_P1;PMS_P2;Temp;Humidity;BMP_temperature;BMP_pressure;BME280_temperature;BME280_humidity;BME280_pressure;Samples;Min_cycle;Max_cycle;Signal;HPM_P1;HPM_P2
2022/08/07 08:07:40;;;;;;;;;;;;;;;22.91;61.64;97130.63;4255571;27;10245;-75
2022/08/07 08:10:04;;;;;;;;;;;;;;;23.14;60.93;97132.06;4233547;27;5794;-75
2022/08/07 08:12:09;;;;;;;;;;;;;;;23.37;60.58;97132.66;4236339;27;5694;-75
2022/08/07 08:14:13;;;;;;;;;;;;;;;23.52;60.52;97124.56;4242382;27;5757;-75
2022/08/07 08:16:20;;;;;;;;;;;;;;;23.64;60.19;97127.84;4239777;27;6572;-75
2022/08/07 08:18:28;;;;;;;;;;;;;;;23.79;59.51;97135.19;4238050;27;6246;-76
2022/08/07 08:20:34;;;;;;;;;;;;;;;23.91;59.27;97129.50;4240036;27;5672;-75
2022/08/07 08:27:51;;;;;;;;;;;;;;;24.17;58.81;97130.31;4233126;27;5691;-76
2022/08/07 08:30:07;;;;;;;;;;;;;;;24.22;58.14;97127.59;4234569;27;6035;-75
2022/08/07 08:32:20;;;;;;;;;;;;;;;24.25;58.44;97132.47;4232932;27;5687;-75
2022/08/07 08:34:28;;;;;;;;;;;;;;;24.30;58.19;97130.56;4231643;28;5707;-76
2022/08/07 08:36:33;;;;;;;;;;;;;;;24.41;57.67;97135.97;4231957;27;5806;-77
2022/08/07 08:38:41;;;;;;;;;;;;;;;24.51;57.96;97127.84;4239538;27;5683;-76
2022/08/07 08:40:53;;;;;;;;;;;;;;;24.59;57.16;97128.09;4236833;27;5675;-76
2022/08/07 08:43:03;;;;;;;;;;;;;;;24.64;57.12;97138.06;4246073;27;5685;-76
2022/08/07 08:45:14;;;;;;;;;;;;;;;24.69;57.09;97132.66;4232383;27;6004;-76
2022/08/07 08:47:24;;;;;;;;;;;;;;;24.78;56.92;97136.41;4243252;27;5678;-77
2022/08/07 08:49:36;;;;;;;;;;;;;;;24.82;56.89;97131.28;4234513;27;5761;-76
2022/08/07 08:52:05;;;;;;;;;;;;;;;24.80;56.64;97123.41;4231965;27;5784;-76
2022/08/07 08:54:23;;;;;;;;;;;;;;;24.79;56.57;97129.09;4235614;27;5822;-76
2022/08/07 08:56:32;;;;;;;;;;;;;;;24.78;56.27;97133.69;4238310;27;5762;-76
2022/08/07 08:58:46;;;;;;;;;;;;;;;24.81;55.87;97130.47;4237053;27;5758;-76
2022/08/07 09:00:59;;;;;;;;;;;;;;;24.86;55.87;97130.44;4231414;27;5099;-75
2022/08/07 09:03:25;;;;;;;;;;;;;;;24.85;56.03;97126.09;4234986;27;5680;-76
2022/08/07 09:05:55;;;;;;;;;;;;;;;24.93;55.60;97130.16;4234592;27;5864;-76
2022/08/07 09:08:11;;;;;;;;;;;;;;;24.97;55.77;97129.31;4252998;27;5741;-76
2022/08/07 09:10:34;;;;;;;;;;;;;;;24.96;55.57;97126.88;4246965;27;5703;-76
2022/08/07 09:12:45;;;;;;;;;;;;;;;24.93;55.56;97128.25;4236500;27;5721;-77
2022/08/07 09:15:10;;;;;;;;;;;;;;;25.00;55.43;97132.53;4237021;28;5653;-76
2022/08/07 09:17:45;;;;;;;;;;;;;;;25.00;54.89;97121.72;4236498;27;5740;-76
2022/08/07 09:20:19;;;;;;;;;;;;;;;25.05;54.85;97124.44;4236888;28;5052;-77
2022/08/07 09:22:52;;;;;;;;;;;;;;;25.11;54.72;97124.13;4249901;27;5711;-77
2022/08/07 09:25:22;;;;;;;;;;;;;;;25.13;54.69;97124.66;4238496;27;5669;-76
2022/08/07 09:27:33;;;;;;;;;;;;;;;25.16;54.18;97123.31;4234473;27;5773;-77
2022/08/07 09:30:02;;;;;;;;;;;;;;;25.19;54.28;97128.16;4238771;27;5824;-77
2022/08/07 09:32:22;;;;;;;;;;;;;;;25.19;54.19;97128.16;4242658;27;5616;-77
2022/08/07 09:34:37;;;;;;;;;;;;;;;25.23;54.03;97126.50;4247918;27;5828;-76
2022/08/07 09:36:51;;;;;;;;;;;;;;;25.26;54.31;97131.38;4241410;27;8398;-77
2022/08/07 09:39:02;;;;;;;;;;;;;;;25.29;53.78;97125.41;4249066;27;5624;-77
2022/08/07 09:41:35;;;;;;;;;;;;;;;25.31;53.78;97123.22;4246971;27;5643;-77
2022/08/07 09:44:08;;;;;;;;;;;;;;;25.34;53.97;97128.06;4235812;27;5672;-78
2022/08/07 09:46:43;;;;;;;;;;;;;;;25.39;53.54;97119.13;4238680;27;5907;-74
2022/08/07 09:49:22;;;;;;;;;;;;;;;25.40;53.64;97118.84;4244213;27;5710;-70
2022/08/07 09:51:56;;;;;;;;;;;;;;;25.42;53.38;97124.78;4249023;27;5710;-72
2022/08/07 09:54:26;;;;;;;;;;;;;;;25.41;53.30;97128.56;4236911;27;5762;-71
2022/08/07 09:56:58;;;;;;;;;;;;;;;25.43;53.28;97126.38;4241204;27;5669;-72
2022/08/07 09:59:19;;;;;;;;;;;;;;;25.50;53.33;97120.69;4243796;27;5736;-76
2022/08/07 10:01:40;;;;;;;;;;;;;;;25.53;52.91;97126.31;4238546;27;5634;-65
2022/08/07 10:04:12;;;;;;;;;;;;;;;25.57;52.84;97115.75;4236140;27;5896;-69
2022/08/07 10:06:35;;;;;;;;;;;;;;;25.59;52.75;97118.16;4239251;27;5771;-66
2022/08/07 10:08:47;;;;;;;;;;;;;;;25.61;52.99;97110.59;4238016;27;5628;-66
2022/08/07 10:11:03;;;;;;;;;;;;;;;25.64;52.71;97115.44;4234225;27;6198;-67
2022/08/07 10:13:41;;;;;;;;;;;;;;;25.65;52.47;97114.34;4244421;27;5649;-63
2022/08/07 10:16:29;;;;;;;;;;;;;;;25.66;52.92;97111.34;4237517;27;5751;-62
2022/08/07 10:18:51;;;;;;;;;;;;;;;25.68;52.46;97116.47;4248213;27;5457;-64
2022/08/07 10:21:10;;;;;;;;;;;;;;;25.71;52.65;97108.66;4246515;27;5640;-64
2022/08/07 10:23:46;;;;;;;;;;;;;;;25.71;52.22;97108.66;4236568;27;5800;-63
2022/08/07 10:26:25;;;;;;;;;;;;;;;25.71;52.33;97107.81;4236189;27;5669;-63
2022/08/07 10:28:52;;;;;;;;;;;;;;;25.72;52.54;97107.56;4243509;27;5837;-63
2022/08/07 10:31:16;;;;;;;;;;;;;;;25.77;52.50;97106.69;4234614;27;5669;-63
2022/08/07 10:33:47;;;;;;;;;;;;;;;25.80;52.16;97109.63;4235144;28;5649;-63
2022/08/07 10:36:42;;;;;;;;;;;;;;;25.86;52.32;97107.72;4235098;28;6270;-63
2022/08/07 10:38:57;;;;;;;;;;;;;;;25.84;52.30;97104.47;4234784;27;5736;-63
2022/08/07 10:41:09;;;;;;;;;;;;;;;25.84;51.87;97099.06;4233590;28;5090;-63
2022/08/07 10:43:16;;;;;;;;;;;;;;;25.84;51.95;97093.66;4234224;28;5680;-63
2022/08/07 10:45:35;;;;;;;;;;;;;;;25.87;52.24;97095.78;4251092;27;6310;-63
2022/08/07 10:48:11;;;;;;;;;;;;;;;25.89;51.96;97093.59;4245899;27;5657;-63
2022/08/07 10:50:24;;;;;;;;;;;;;;;25.90;51.82;97089.78;4234956;28;5669;-63
2022/08/07 10:52:38;;;;;;;;;;;;;;;25.94;52.11;97095.47;4234888;28;5696;-63
2022/08/07 10:54:52;;;;;;;;;;;;;;;25.94;51.76;97093.56;4234708;28;5744;-64
2022/08/07 10:57:15;;;;;;;;;;;;;;;25.90;51.65;97094.41;4250780;27;5806;-63
2022/08/07 10:59:33;;;;;;;;;;;;;;;25.88;51.78;97091.97;4241566;27;5764;-63
2022/08/07 11:01:48;;;;;;;;;;;;;;;25.89;51.59;97084.66;4234869;28;5680;-63
2022/08/07 11:04:15;;;;;;;;;;;;;;;25.96;51.96;97091.38;4234664;27;5637;-63
2022/08/07 11:06:43;;;;;;;;;;;;;;;26.02;51.98;97076.69;4233089;28;5706;-63
2022/08/07 11:08:59;;;;;;;;;;;;;;;26.07;51.48;97076.66;4234369;27;5634;-63
2022/08/07 11:11:09;;;;;;;;;;;;;;;26.11;51.85;97079.59;4234362;27;6492;-65
2022/08/07 11:13:18;;;;;;;;;;;;;;;26.15;51.47;97082.53;4234259;28;5649;-63
2022/08/07 11:15:45;;;;;;;;;;;;;;;26.17;51.80;97072.22;4234095;28;5653;-63
2022/08/07 11:18:02;;;;;;;;;;;;;;;26.19;51.47;97075.44;4232477;27;5695;-63
2022/08/07 11:20:07;;;;;;;;;;;;;;;26.24;51.55;97076.19;4249864;27;5673;-63
2022/08/07 11:22:22;;;;;;;;;;;;;;;26.30;51.66;97079.69;4234247;28;5657;-63
2022/08/07 11:24:51;;;;;;;;;;;;;;;26.31;51.45;97075.88;4234190;28;5642;-63
2022/08/07 11:27:01;;;;;;;;;;;;;;;26.31;51.60;97076.69;4234099;28;6291;-63
2022/08/07 11:29:09;;;;;;;;;;;;;;;26.32;51.47;97069.34;4234386;28;5668;-64
2022/08/07 11:31:40;;;;;;;;;;;;;;;26.33;51.40;97069.06;4234049;28;5732;-64
2022/08/07 11:33:54;;;;;;;;;;;;;;;26.36;51.72;97068.50;4234410;28;5711;-64
2022/08/07 11:36:13;;;;;;;;;;;;;;;26.41;51.48;97067.66;4249641;27;6326;-63
2022/08/07 11:38:27;;;;;;;;;;;;;;;26.43;51.42;97068.19;4243160;27;5782;-64
2022/08/07 11:40:41;;;;;;;;;;;;;;;26.44;51.48;97063.56;4234532;27;5656;-63
2022/08/07 11:42:58;;;;;;;;;;;;;;;26.47;51.29;97062.97;4246645;27;5640;-64
2022/08/07 11:45:16;;;;;;;;;;;;;;;26.48;51.06;97065.41;4243282;27;5740;-64
2022/08/07 11:47:37;;;;;;;;;;;;;;;26.50;51.29;97068.63;4232520;28;5709;-64
2022/08/07 11:50:11;;;;;;;;;;;;;;;26.50;51.18;97062.38;4233379;28;5709;-64
2022/08/07 11:52:45;;;;;;;;;;;;;;;26.51;50.97;97064.84;4234469;28;5648;-65
2022/08/07 11:55:04;;;;;;;;;;;;;;;26.52;51.13;97063.75;4233920;28;5704;-65
2022/08/07 11:57:21;;;;;;;;;;;;;;;26.55;51.09;97065.88;4233571;28;5796;-64
2022/08/07 12:00:08;;;;;;;;;;;;;;;26.60;50.88;97073.94;4233887;27;5664;-65
2022/08/07 12:02:33;;;;;;;;;;;;;;;26.63;50.84;97056.28;4233721;28;5673;-63
2022/08/07 12:04:56;;;;;;;;;;;;;;;26.62;50.69;97060.91;4232680;28;5746;-63
2022/08/07 12:07:05;;;;;;;;;;;;;;;26.64;50.82;97057.91;4234610;27;5712;-63
2022/08/07 12:09:35;;;;;;;;;;;;;;;26.60;50.69;97065.78;4240950;27;5728;-65
2022/08/07 12:11:46;;;;;;;;;;;;;;;26.48;50.61;97062.69;4233905;28;6430;-63
2022/08/07 12:14:13;;;;;;;;;;;;;;;26.44;50.38;97064.38;4234118;28;5724;-63
2022/08/07 12:16:24;;;;;;;;;;;;;;;26.40;50.15;97056.00;4233991;28;6275;-63
2022/08/07 12:18:36;;;;;;;;;;;;;;;26.44;50.00;97048.09;4246264;27;6130;-63
2022/08/07 12:20:52;;;;;;;;;;;;;;;26.47;50.25;97061.06;4250739;27;5097;-64
2022/08/07 12:23:22;;;;;;;;;;;;;;;26.47;49.91;97055.66;4241179;27;5641;-64
2022/08/07 12:25:55;;;;;;;;;;;;;;;26.49;49.69;97039.91;4233691;28;5646;-63
2022/08/07 12:28:26;;;;;;;;;;;;;;;26.53;49.06;97048.28;4233378;27;5753;-63
2022/08/07 12:30:37;;;;;;;;;;;;;;;26.54;49.32;97053.41;4241875;27;5711;-63
2022/08/07 12:32:47;;;;;;;;;;;;;;;26.57;49.23;97047.41;4233782;28;5638;-63
2022/08/07 12:34:51;;;;;;;;;;;;;;;26.58;49.28;97049.00;4233617;28;5857;-64
2022/08/07 12:37:00;;;;;;;;;;;;;;;26.59;49.04;97049.81;4233927;28;5485;-64
2022/08/07 12:39:11;;;;;;;;;;;;;;;26.56;49.47;97043.06;4233320;28;5665;-64
2022/08/07 12:41:36;;;;;;;;;;;;;;;26.58;49.19;97046.31;4233800;28;5669;-63
2022/08/07 12:43:58;;;;;;;;;;;;;;;26.60;49.18;97044.09;4236260;28;5735;-64
2022/08/07 12:46:18;;;;;;;;;;;;;;;26.61;49.27;97039.50;4253600;27;5660;-63
2022/08/07 12:48:45;;;;;;;;;;;;;;;26.64;49.28;97041.63;4253457;27;5765;-63
2022/08/07 12:51:02;;;;;;;;;;;;;;;26.68;49.05;97037.25;4253828;27;5631;-63
2022/08/07 12:53:25;;;;;;;;;;;;;;;26.69;48.83;97039.66;4253864;27;5648;-63
2022/08/07 12:55:35;;;;;;;;;;;;;;;26.66;48.72;97037.53;4253257;27;5624;-63
2022/08/07 12:58:00;;;;;;;;;;;;;;;26.66;48.75;97026.69;4253358;27;5067;-64
2022/08/07 13:00:08;;;;;;;;;;;;;;;26.67;48.57;97031.00;4246600;27;5114;-63
2022/08/07 13:02:39;;;;;;;;;;;;;;;26.67;48.31;97025.59;4254018;27;5731;-63
2022/08/07 13:04:59;;;;;;;;;;;;;;;26.68;48.47;97027.19;4252218;27;7667;-63
2022/08/07 13:07:21;;;;;;;;;;;;;;;26.66;48.14;97029.41;4253229;27;7149;-63
2022/08/07 13:10:01;;;;;;;;;;;;;;;26.65;48.06;97027.78;4241599;27;5644;-63
2022/08/07 13:12:35;;;;;;;;;;;;;;;26.66;47.90;97023.97;4236441;28;6467;-63
2022/08/07 13:14:51;;;;;;;;;;;;;;;26.68;47.77;97021.78;4236613;28;5638;-63
2022/08/07 13:17:05;;;;;;;;;;;;;;;26.70;47.63;97018.78;4237279;27;5804;-63
2022/08/07 13:19:19;;;;;;;;;;;;;;;26.73;47.86;97012.78;4251820;27;5512;-63
2022/08/07 13:21:45;;;;;;;;;;;;;;;26.77;47.43;97015.72;4253731;27;6346;-63
2022/08/07 13:24:08;;;;;;;;;;;;;;;26.78;47.65;97014.59;4253450;27;5189;-63
2022/08/07 13:26:17;;;;;;;;;;;;;;;26.77;47.32;97011.09;4253199;27;5738;-63
2022/08/07 13:28:28;;;;;;;;;;;;;;;26.72;47.15;97008.44;4268683;27;5679;-65
2022/08/07 13:30:32;;;;;;;;;;;;;;;26.70;47.44;97002.50;4241605;27;5718;-64
2022/08/07 13:32:50;;;;;;;;;;;;;;;26.69;47.16;97001.69;4236594;28;5728;-65
2022/08/07 13:35:00;;;;;;;;;;;;;;;26.70;47.27;96997.88;4236525;28;5837;-64
2022/08/07 13:37:21;;;;;;;;;;;;;;;26.75;47.27;96998.94;4236187;28;5668;-64
2022/08/07 13:39:35;;;;;;;;;;;;;;;26.77;47.13;96992.09;4236201;28;5727;-65
2022/08/07 13:41:58;;;;;;;;;;;;;;;26.76;46.76;96986.97;4236033;28;5645;-64
2022/08/07 13:44:03;;;;;;;;;;;;;;;26.78;46.99;96992.91;4235971;28;5704;-63
2022/08/07 13:46:14;;;;;;;;;;;;;;;26.77;47.08;96985.88;4235898;27;5711;-62
2022/08/07 13:48:33;;;;;;;;;;;;;;;26.75;46.98;96986.19;4235620;28;5645;-62
2022/08/07 13:50:42;;;;;;;;;;;;;;;26.78;46.93;96984.78;4235886;28;5751;-62
2022/08/07 13:53:02;;;;;;;;;;;;;;;26.82;46.84;96986.59;4235953;28;5720;-63
2022/08/07 13:55:12;;;;;;;;;;;;;;;26.84;46.78;96987.13;4235929;27;5669;-62
2022/08/07 13:57:29;;;;;;;;;;;;;;;26.84;46.53;96991.72;4235563;28;6369;-63
2022/08/07 13:59:43;;;;;;;;;;;;;;;26.87;46.71;96980.31;4235857;28;5649;-62
2022/08/07 14:01:52;;;;;;;;;;;;;;;26.89;46.70;96975.41;4234393;28;5698;-63
2022/08/07 14:04:10;;;;;;;;;;;;;;;26.92;46.69;96977.50;4235749;28;5664;-62
2022/08/07 14:06:15;;;;;;;;;;;;;;;26.89;46.48;96978.09;4235358;28;5716;-63
2022/08/07 14:08:21;;;;;;;;;;;;;;;26.88;46.50;96971.06;4235554;28;5738;-63
2022/08/07 14:10:24;;;;;;;;;;;;;;;26.92;46.39;96974.81;4238230;27;5747;-62
2022/08/07 14:12:40;;;;;;;;;;;;;;;26.92;46.52;96972.91;4252270;27;5832;-62
2022/08/07 14:14:51;;;;;;;;;;;;;;;26.89;46.32;96972.69;4251150;27;5816;-62
2022/08/07 14:16:56;;;;;;;;;;;;;;;26.88;46.54;96971.06;4252064;27;5799;-63
2022/08/07 14:19:03;;;;;;;;;;;;;;;26.90;46.32;96982.44;4241678;27;6350;-63
2022/08/07 14:21:12;;;;;;;;;;;;;;;26.90;46.06;96977.00;4252198;27;5718;-63
2022/08/07 14:23:37;;;;;;;;;;;;;;;26.94;46.23;96978.03;4252371;27;5644;-64
2022/08/07 14:26:06;;;;;;;;;;;;;;;26.95;46.02;96976.91;4252398;27;5667;-64
2022/08/07 14:28:11;;;;;;;;;;;;;;;26.95;46.03;96975.00;4252028;27;5615;-62
2022/08/07 14:30:16;;;;;;;;;;;;;;;26.93;46.11;96968.28;4244381;27;5641;-62
2022/08/07 14:32:44;;;;;;;;;;;;;;;26.93;46.03;96973.69;4235571;28;5666;-62
2022/08/07 14:34:49;;;;;;;;;;;;;;;26.96;46.13;96962.28;4235352;27;5778;-63
2022/08/07 14:36:56;;;;;;;;;;;;;;;26.99;45.96;96964.41;4235151;27;5657;-62
2022/08/07 14:39:02;;;;;;;;;;;;;;;26.95;45.93;96972.31;4235283;27;5641;-62
2022/08/07 14:41:07;;;;;;;;;;;;;;;26.92;45.85;96972.09;4234717;28;5653;-62
2022/08/07 14:43:20;;;;;;;;;;;;;;;26.90;45.85;96972.38;4234637;28;5649;-62
2022/08/07 14:45:46;;;;;;;;;;;;;;;26.87;45.85;96964.03;4248061;27;5690;-62
2022/08/07 14:47:54;;;;;;;;;;;;;;;26.91;45.67;96965.06;4251982;27;6530;-63
2022/08/07 14:50:06;;;;;;;;;;;;;;;26.94;45.83;96964.47;4252084;27;5639;-62
2022/08/07 14:52:19;;;;;;;;;;;;;;;26.94;45.67;96976.13;4252051;27;5628;-63
2022/08/07 14:54:31;;;;;;;;;;;;;;;26.96;45.74;96981.28;4250596;27;6467;-62
2022/08/07 14:56:54;;;;;;;;;;;;;;;26.97;45.46;96961.19;4251819;27;5843;-62
2022/08/07 14:59:03;;;;;;;;;;;;;;;27.01;45.45;96964.91;4250017;27;5688;-63
2022/08/07 15:01:17;;;;;;;;;;;;;;;27.03;45.48;96964.63;4252011;27;5804;-63
2022/08/07 15:03:28;;;;;;;;;;;;;;;27.06;45.65;96967.56;4251566;27;5627;-62
2022/08/07 15:05:51;;;;;;;;;;;;;;;27.05;45.34;96970.56;4250570;27;5102;-63
2022/08/07 15:08:10;;;;;;;;;;;;;;;27.04;45.40;96964.34;4251996;27;5637;-63
2022/08/07 15:10:21;;;;;;;;;;;;;;;27.07;45.39;96966.50;4235128;27;5637;-62
2022/08/07 15:12:45;;;;;;;;;;;;;;;27.09;45.41;96971.63;4234412;28;5098;-63
2022/08/07 15:15:11;;;;;;;;;;;;;;;27.02;45.37;96963.84;4234530;28;5645;-63
2022/08/07 15:17:38;;;;;;;;;;;;;;;26.99;45.36;96970.63;4240922;27;5821;-62
2022/08/07 15:19:59;;;;;;;;;;;;;;;26.99;45.23;96967.13;4239094;27;5628;-62
2022/08/07 15:22:27;;;;;;;;;;;;;;;26.98;45.20;96963.59;4234569;28;6328;-63
2022/08/07 15:24:39;;;;;;;;;;;;;;;26.98;45.36;96968.22;4247825;27;5639;-63
2022/08/07 15:27:08;;;;;;;;;;;;;;;26.99;45.22;96967.13;4244913;27;5673;-63
2022/08/07 15:29:15;;;;;;;;;;;;;;;27.01;45.25;96970.34;4234103;27;5641;-63
2022/08/07 15:31:40;;;;;;;;;;;;;;;27.04;45.04;96969.75;4239029;27;5636;-63
2022/08/07 15:34:04;;;;;;;;;;;;;;;27.05;45.10;96965.94;4251473;27;5835;-64
2022/08/07 15:36:16;;;;;;;;;;;;;;;27.05;45.20;96973.28;4251168;27;5684;-62
2022/08/07 15:38:41;;;;;;;;;;;;;;;27.05;45.16;96962.44;4251098;27;5744;-62
2022/08/07 15:41:09;;;;;;;;;;;;;;;27.06;45.14;96961.31;4251288;27;5679;-63
2022/08/07 15:43:37;;;;;;;;;;;;;;;27.06;45.17;96969.47;4250677;27;5604;-64
2022/08/07 15:46:04;;;;;;;;;;;;;;;27.04;44.91;96961.63;4235734;27;5649;-63
2022/08/07 15:48:31;;;;;;;;;;;;;;;27.08;45.06;96964.56;4234230;28;8331;-63
2022/08/07 15:50:40;;;;;;;;;;;;;;;27.09;45.01;96955.34;4233789;28;5638;-63
2022/08/07 15:53:05;;;;;;;;;;;;;;;27.11;44.79;96962.06;4233980;28;5747;-63
2022/08/07 15:55:15;;;;;;;;;;;;;;;27.13;44.91;96959.88;4234155;27;5645;-63
2022/08/07 15:57:26;;;;;;;;;;;;;;;27.13;44.98;96953.63;4233577;28;5697;-63
2022/08/07 15:59:51;;;;;;;;;;;;;;;27.15;44.97;96960.38;4234084;27;5641;-62
2022/08/07 16:02:01;;;;;;;;;;;;;;;27.14;44.90;96964.19;4233875;28;5645;-62
2022/08/07 16:04:10;;;;;;;;;;;;;;;27.11;44.76;96964.78;4233988;28;5648;-63
2022/08/07 16:06:27;;;;;;;;;;;;;;;27.05;44.95;96955.09;4233633;28;5645;-62
2022/08/07 16:08:34;;;;;;;;;;;;;;;27.02;44.93;96955.69;4235204;27;5728;-62
2022/08/07 16:10:42;;;;;;;;;;;;;;;26.96;45.16;96957.66;4245889;27;5645;-62
2022/08/07 16:13:05;;;;;;;;;;;;;;;26.99;44.80;96953.53;4233710;28;5645;-62
2022/08/07 16:15:40;;;;;;;;;;;;;;;26.96;44.67;96952.25;4233841;28;5658;-63
2022/08/07 16:18:09;;;;;;;;;;;;;;;26.93;44.76;96952.81;4237096;27;5634;-62
2022/08/07 16:20:29;;;;;;;;;;;;;;;26.90;44.56;96956.13;4247553;27;5710;-62
2022/08/07 16:22:43;;;;;;;;;;;;;;;26.91;44.31;96951.50;4254560;27;5709;-62
2022/08/07 16:25:02;;;;;;;;;;;;;;;26.94;44.27;96950.91;4254288;27;5823;-63
2022/08/07 16:27:18;;;;;;;;;;;;;;;26.91;44.29;96941.44;4254015;27;5647;-62
2022/08/07 16:29:34;;;;;;;;;;;;;;;26.92;44.37;96951.19;4254004;27;5655;-62
2022/08/07 16:32:00;;;;;;;;;;;;;;;26.92;44.19;96944.97;4237520;27;5625;-62
2022/08/07 16:34:12;;;;;;;;;;;;;;;26.94;44.16;96951.69;4236985;27;5716;-63
2022/08/07 16:36:37;;;;;;;;;;;;;;;26.93;44.22;96949.28;4237140;28;5783;-63
2022/08/07 16:39:17;;;;;;;;;;;;;;;26.93;44.01;96952.00;4241064;27;5738;-63
2022/08/07 16:42:14;;;;;;;;;;;;;;;26.93;43.84;96950.09;4242381;27;5668;-63
2022/08/07 16:44:37;;;;;;;;;;;;;;;26.96;44.10;96948.72;4222295;27;5672;-64
2022/08/07 16:47:10;;;;;;;;;;;;;;;26.97;43.87;96953.03;4240125;27;5661;-64
2022/08/07 16:50:03;;;;;;;;;;;;;;;26.99;43.77;96945.41;4246258;27;6453;-65
2022/08/07 16:52:44;;;;;;;;;;;;;;;27.04;43.95;96949.97;4248113;27;5661;-64
2022/08/07 16:55:12;;;;;;;;;;;;;;;27.06;43.74;96955.91;4246473;27;5661;-65
2022/08/07 16:57:36;;;;;;;;;;;;;;;27.04;43.55;96958.13;4244521;27;5624;-64
2022/08/07 17:00:08;;;;;;;;;;;;;;;27.02;43.71;96961.13;4252230;27;6309;-65
2022/08/07 17:02:49;;;;;;;;;;;;;;;27.04;43.56;96956.19;4245003;27;5685;-64
2022/08/07 17:05:18;;;;;;;;;;;;;;;27.05;43.55;96960.53;4239605;27;5716;-65
2022/08/07 17:07:48;;;;;;;;;;;;;;;27.05;43.66;96959.72;4248281;27;5707;-64
2022/08/07 17:10:05;;;;;;;;;;;;;;;27.04;43.35;96947.25;4247666;27;7716;-65
2022/08/07 17:12:42;;;;;;;;;;;;;;;27.05;43.54;96949.66;4236812;27;5828;-64
2022/08/07 17:14:53;;;;;;;;;;;;;;;27.04;43.46;96953.50;4235710;27;5677;-64
2022/08/07 17:17:00;;;;;;;;;;;;;;;27.03;43.60;96945.66;4243776;27;6363;-65
2022/08/07 17:19:11;;;;;;;;;;;;;;;27.02;43.61;96944.84;4237742;27;5743;-65
2022/08/07 17:21:22;;;;;;;;;;;;;;;26.99;43.60;96945.41;4248015;27;5632;-65
2022/08/07 17:23:40;;;;;;;;;;;;;;;26.96;43.57;96941.38;4237806;27;6330;-65
2022/08/07 17:25:56;;;;;;;;;;;;;;;26.93;43.33;96946.56;4249403;27;5750;-64
2022/08/07 17:28:03;;;;;;;;;;;;;;;26.95;43.23;96947.09;4237300;27;5739;-63
2022/08/07 17:30:11;;;;;;;;;;;;;;;26.96;43.61;96948.72;4239335;27;5158;-63
2022/08/07 17:32:39;;;;;;;;;;;;;;;26.98;43.37;96954.66;4235747;27;5661;-64
2022/08/07 17:35:04;;;;;;;;;;;;;;;26.91;43.26;96955.00;4240365;27;5694;-63
2022/08/07 17:37:33;;;;;;;;;;;;;;;26.92;43.31;96953.09;4237958;27;5684;-63
2022/08/07 17:40:03;;;;;;;;;;;;;;;26.95;43.61;96960.66;4244198;27;5870;-63
2022/08/07 17:42:26;;;;;;;;;;;;;;;26.97;43.02;96959.28;4235695;27;5737;-64
2022/08/07 17:44:40;;;;;;;;;;;;;;;26.96;43.31;96957.66;4242020;27;5649;-64
2022/08/07 17:46:56;;;;;;;;;;;;;;;26.97;43.31;96961.97;4235763;28;5684;-66
2022/08/07 17:49:08;;;;;;;;;;;;;;;26.96;43.22;96959.56;4240373;27;5613;-65
2022/08/07 17:51:19;;;;;;;;;;;;;;;26.96;43.11;96973.94;4239371;27;5686;-65
2022/08/07 17:53:30;;;;;;;;;;;;;;;26.94;43.26;96967.16;4235594;27;5650;-66
2022/08/07 17:55:59;;;;;;;;;;;;;;;26.91;43.31;96956.91;4238255;27;6124;-68
2022/08/07 17:58:17;;;;;;;;;;;;;;;26.93;43.39;96969.09;4241198;27;5736;-68
2022/08/07 18:00:35;;;;;;;;;;;;;;;26.96;43.29;96973.13;4245050;27;6309;-67
2022/08/07 18:02:54;;;;;;;;;;;;;;;26.97;43.16;96961.97;4242125;27;5822;-65
2022/08/07 18:05:04;;;;;;;;;;;;;;;27.02;43.14;96971.16;4244286;27;6162;-68
2022/08/07 18:07:36;;;;;;;;;;;;;;;27.02;43.06;96963.84;4236022;27;5819;-70
2022/08/07 18:09:49;;;;;;;;;;;;;;;27.05;43.29;96970.56;4238546;27;5680;-69
2022/08/07 18:12:17;;;;;;;;;;;;;;;27.05;43.17;96974.09;4237729;27;5839;-69
2022/08/07 18:14:40;;;;;;;;;;;;;;;27.04;43.40;96971.69;4234584;27;5681;-68
2022/08/07 18:16:54;;;;;;;;;;;;;;;27.03;43.39;96989.88;4235002;27;5732;-68
2022/08/07 18:19:10;;;;;;;;;;;;;;;26.99;43.56;96977.97;4234836;27;5653;-68
2022/08/07 18:21:36;;;;;;;;;;;;;;;26.99;43.37;96972.53;4233263;27;5898;-66
2022/08/07 18:24:03;;;;;;;;;;;;;;;27.04;43.60;96969.75;4246516;27;5631;-66
2022/08/07 18:26:14;;;;;;;;;;;;;;;27.07;43.58;96985.47;4240595;27;5653;-68
2022/08/07 18:28:21;;;;;;;;;;;;;;;27.08;43.34;96980.84;4237377;27;5739;-67
2022/08/07 18:30:49;;;;;;;;;;;;;;;27.07;43.54;96980.06;4241265;27;5824;-68
2022/08/07 18:33:28;;;;;;;;;;;;;;;27.05;43.66;96979.50;4237910;27;5669;-69
2022/08/07 18:35:39;;;;;;;;;;;;;;;27.01;43.41;96980.38;4233163;27;5808;-70
2022/08/07 18:38:15;;;;;;;;;;;;;;;27.00;43.61;96985.00;4233294;27;5863;-70
2022/08/07 18:40:53;;;;;;;;;;;;;;;27.03;43.47;96986.34;4232079;27;5711;-69
2022/08/07 18:43:14;;;;;;;;;;;;;;;27.04;43.41;96991.47;4241866;27;5656;-69
2022/08/07 18:45:23;;;;;;;;;;;;;;;27.01;43.47;97000.19;4243457;27;5648;-68
2022/08/07 18:47:54;;;;;;;;;;;;;;;26.94;43.52;96984.25;4233935;27;5660;-69
2022/08/07 18:50:43;;;;;;;;;;;;;;;26.93;43.32;96990.78;4234226;28;5660;-67
2022/08/07 18:53:01;;;;;;;;;;;;;;;26.91;43.52;96998.41;4233528;27;6734;-69
2022/08/07 18:55:20;;;;;;;;;;;;;;;26.90;43.34;96996.81;4234502;28;5645;-67
2022/08/07 18:57:58;;;;;;;;;;;;;;;26.84;43.30;96986.31;4238227;27;5643;-66
2022/08/07 19:00:07;;;;;;;;;;;;;;;26.88;43.47;97003.63;4234247;27;6341;-67
2022/08/07 19:02:40;;;;;;;;;;;;;;;26.87;43.16;97007.44;4239842;27;5631;-69
2022/08/07 19:04:57;;;;;;;;;;;;;;;26.91;43.20;97009.25;4236617;27;5785;-69
2022/08/07 19:07:29;;;;;;;;;;;;;;;26.92;43.14;97010.88;4246487;27;5624;-69
2022/08/07 19:09:48;;;;;;;;;;;;;;;26.94;43.19;97005.16;4236411;27;5737;-69
2022/08/07 19:12:18;;;;;;;;;;;;;;;26.93;43.19;97020.63;4235786;27;5747;-69
2022/08/07 19:14:39;;;;;;;;;;;;;;;26.93;43.04;97011.69;4236070;27;5676;-72
2022/08/07 19:16:58;;;;;;;;;;;;;;;26.90;43.05;97025.84;4242114;27;5767;-71
2022/08/07 19:19:18;;;;;;;;;;;;;;;26.87;43.01;97018.28;4232268;27;5729;-71
2022/08/07 19:21:40;;;;;;;;;;;;;;;26.80;42.67;97029.47;4247546;27;5734;-69
2022/08/07 19:24:05;;;;;;;;;;;;;;;26.74;42.75;97024.44;4234869;27;5657;-69
2022/08/07 19:26:10;;;;;;;;;;;;;;;26.70;42.62;97029.63;4235545;27;5920;-68
2022/08/07 19:28:36;;;;;;;;;;;;;;;26.64;42.73;97041.63;4232354;27;6013;-68
2022/08/07 19:31:10;;;;;;;;;;;;;;;26.56;42.54;97034.94;4239366;27;5116;-69
2022/08/07 19:33:39;;;;;;;;;;;;;;;26.48;42.57;97027.44;4243247;27;5620;-70
2022/08/07 19:35:53;;;;;;;;;;;;;;;26.52;42.54;97024.97;4246952;27;5628;-69
2022/08/07 19:37:59;;;;;;;;;;;;;;;26.54;42.42;97037.16;4250811;27;5636;-69
2022/08/07 19:40:06;;;;;;;;;;;;;;;26.53;42.33;97040.94;4240618;27;5748;-68
2022/08/07 19:42:15;;;;;;;;;;;;;;;26.50;42.36;97036.09;4233508;27;5741;-68
2022/08/07 19:44:44;;;;;;;;;;;;;;;26.51;42.56;97035.03;4234678;27;5765;-72
2022/08/07 19:47:02;;;;;;;;;;;;;;;26.49;42.37;97030.97;4234304;27;5661;-69
2022/08/07 19:49:07;;;;;;;;;;;;;;;26.47;42.51;97031.25;4236418;27;5673;-69
2022/08/07 19:51:16;;;;;;;;;;;;;;;26.52;42.34;97039.34;4236626;27;7685;-69
2022/08/07 19:53:23;;;;;;;;;;;;;;;26.48;42.51;97038.28;4236561;27;5707;-70
2022/08/07 19:55:53;;;;;;;;;;;;;;;26.46;42.37;97035.06;4242900;27;5805;-69
2022/08/07 19:58:01;;;;;;;;;;;;;;;26.47;42.36;97035.88;4239241;27;5721;-71
2022/08/07 20:00:21;;;;;;;;;;;;;;;26.48;42.42;97046.41;4247473;27;5644;-70
2022/08/07 20:02:36;;;;;;;;;;;;;;;26.49;42.25;97039.09;4233572;27;5674;-70
2022/08/07 20:04:43;;;;;;;;;;;;;;;26.47;42.46;97042.09;4232619;27;5652;-69
2022/08/07 20:06:54;;;;;;;;;;;;;;;26.42;42.27;97039.47;4233043;27;5732;-68
2022/08/07 20:09:00;;;;;;;;;;;;;;;26.41;42.27;97035.13;4236065;27;5819;-69
2022/08/07 20:11:10;;;;;;;;;;;;;;;26.40;42.28;97041.66;4234913;27;5732;-71
2022/08/07 20:13:23;;;;;;;;;;;;;;;26.36;42.26;97038.69;4237118;27;5645;-71
2022/08/07 20:15:32;;;;;;;;;;;;;;;26.31;42.26;97027.88;4239233;27;5712;-71
2022/08/07 20:17:40;;;;;;;;;;;;;;;26.25;42.71;97030.94;4243335;27;5834;-72
2022/08/07 20:19:48;;;;;;;;;;;;;;;26.24;42.52;97027.41;4243045;27;5856;-70
2022/08/07 20:22:02;;;;;;;;;;;;;;;26.22;42.38;97023.38;4246868;27;5828;-73
2022/08/07 20:24:14;;;;;;;;;;;;;;;26.24;42.64;97015.78;4242866;27;5657;-69
2022/08/07 20:26:18;;;;;;;;;;;;;;;26.17;42.87;97020.75;4234589;27;5859;-74